Wetterdaten: Freitag, 05.06.2015
Datum Zeit Temp. A. Feuchte A. Luftdruck Regen Wind Richtung Richtung Sonnenschein ET UV Solar Taupunkt Windchill Windben Empfang
05.06.2015 00:00 17,7 C 75 % 1021,6 hPa 0,0 l/m 4,0 km/h (1 Bft) O 90 0 min 0,000 mm 0,0 UV-I 0 W/m 13,2 C 17,7 C 7,9 km/h (2 Bft) 0,00 %
05.06.2015 01:00 18,1 C 67 % 1022,0 hPa 0,0 l/m 10,8 km/h (2 Bft) O 90 0 min 0,000 mm 0,0 UV-I 0 W/m 11,9 C 16,3 C 15,8 km/h (3 Bft) 0,00 %
05.06.2015 02:00 16,9 C 69 % 1022,2 hPa 0,0 l/m 8,2 km/h (2 Bft) O 90 0 min 0,000 mm 0,0 UV-I 0 W/m 11,2 C 16,0 C 11,9 km/h (2 Bft) 0,00 %
05.06.2015 03:00 15,9 C 68 % 1022,3 hPa 0,0 l/m 11,6 km/h (2 Bft) O-SO 120 0 min 0,000 mm 0,0 UV-I 0 W/m 10,0 C 13,5 C 15,8 km/h (3 Bft) 0,00 %
05.06.2015 04:00 15,0 C 69 % 1022,5 hPa 0,0 l/m 8,2 km/h (2 Bft) O 90 0 min 0,000 mm 0,0 UV-I 0 W/m 9,4 C 14,0 C 11,9 km/h (2 Bft) 0,00 %
05.06.2015 05:00 14,3 C 70 % 1022,6 hPa 0,0 l/m 0,3 km/h (0 Bft) O 90 0 min 0,000 mm 0,0 UV-I 3 W/m 8,9 C 14,3 C 4,0 km/h (1 Bft) 0,00 %
05.06.2015 06:00 14,8 C 63 % 1022,5 hPa 0,0 l/m 4,7 km/h (1 Bft) O-SO 110 60 min 0,000 mm 0,0 UV-I 182 W/m 7,8 C 14,8 C 7,9 km/h (2 Bft) 0,00 %
05.06.2015 07:00 16,1 C 58 % 1022,3 hPa 0,0 l/m 9,0 km/h (2 Bft) O-SO 120 60 min 0,000 mm 1,0 UV-I 387 W/m 7,8 C 14,8 C 15,5 km/h (3 Bft) 0,00 %
05.06.2015 08:00 17,4 C 58 % 1022,1 hPa 0,0 l/m 9,0 km/h (2 Bft) O-SO 115 60 min 0,000 mm 2,0 UV-I 475 W/m 9,1 C 16,2 C 11,9 km/h (2 Bft) 0,00 %
05.06.2015 09:00 18,6 C 53 % 1021,5 hPa 0,0 l/m 19,5 km/h (3 Bft) O-SO 120 60 min 0,000 mm 2,0 UV-I 532 W/m 8,8 C 14,5 C 24,1 km/h (4 Bft) 0,00 %
05.06.2015 10:00 19,6 C 49 % 1021,3 hPa 0,0 l/m 14,3 km/h (3 Bft) O 90 60 min 0,000 mm 3,0 UV-I 614 W/m 8,6 C 16,9 C 19,8 km/h (3 Bft) 0,00 %
05.06.2015 11:00 22,1 C 46 % 1021,0 hPa 0,0 l/m 11,6 km/h (2 Bft) O 90 60 min 0,000 mm 4,0 UV-I 718 W/m 9,9 C 20,5 C 15,8 km/h (3 Bft) 0,00 %
05.06.2015 12:00 23,2 C 45 % 1020,5 hPa 0,0 l/m 15,8 km/h (3 Bft) O 90 60 min 0,000 mm 6,0 UV-I 792 W/m 10,6 C 21,0 C 19,8 km/h (3 Bft) 0,00 %
05.06.2015 13:00 24,3 C 43 % 1019,9 hPa 0,0 l/m 13,0 km/h (3 Bft) O-SO 120 60 min 0,000 mm 6,0 UV-I 852 W/m 10,9 C 22,8 C 24,1 km/h (4 Bft) 0,00 %
05.06.2015 14:00 25,1 C 41 % 1019,5 hPa 0,0 l/m 4,7 km/h (1 Bft) N-NO 15 60 min 0,000 mm 6,0 UV-I 893 W/m 10,9 C 25,1 C 7,9 km/h (2 Bft) 0,00 %
05.06.2015 15:00 25,4 C 41 % 1019,1 hPa 0,0 l/m 10,5 km/h (2 Bft) O 90 60 min 0,000 mm 5,0 UV-I 914 W/m 11,2 C 24,5 C 11,9 km/h (2 Bft) 0,00 %
05.06.2015 16:00 26,3 C 38 % 1018,3 hPa 0,0 l/m 5,5 km/h (1 Bft) NO 50 60 min 0,000 mm 4,0 UV-I 908 W/m 10,8 C 26,3 C 7,9 km/h (2 Bft) 0,00 %
05.06.2015 17:00 26,1 C 39 % 1018,0 hPa 0,0 l/m 2,9 km/h (1 Bft) O-SO 120 60 min 0,000 mm 1,0 UV-I 860 W/m 11,0 C 26,1 C 7,9 km/h (2 Bft) 0,00 %
05.06.2015 18:00 25,2 C 40 % 1017,0 hPa 0,0 l/m 4,3 km/h (1 Bft) O-SO 110 60 min 0,000 mm 1,0 UV-I 762 W/m 10,6 C 25,2 C 7,9 km/h (2 Bft) 0,00 %
05.06.2015 19:00 24,2 C 42 % 1016,8 hPa 0,0 l/m 2,1 km/h (1 Bft) NO 56 60 min 0,000 mm 1,0 UV-I 592 W/m 10,5 C 24,2 C 4,0 km/h (1 Bft) 0,00 %
05.06.2015 20:00 22,7 C 46 % 1017,3 hPa 0,0 l/m 0,0 km/h (0 Bft) O-SO 120 60 min 0,000 mm 0,0 UV-I 285 W/m 10,5 C 22,7 C 0,0 km/h (0 Bft) 0,00 %
05.06.2015 21:00 20,2 C 50 % 1017,7 hPa 0,0 l/m 0,6 km/h (0 Bft) O-SO 110 0 min 0,000 mm 0,0 UV-I 0 W/m 9,4 C 20,2 C 4,0 km/h (1 Bft) 0,00 %
05.06.2015 22:00 18,9 C 54 % 1018,3 hPa 0,0 l/m 4,3 km/h (1 Bft) SO 125 0 min 0,000 mm 0,0 UV-I 0 W/m 9,4 C 18,9 C 7,9 km/h (2 Bft) 0,00 %
05.06.2015 23:00 17,8 C 58 % 1018,1 hPa 0,0 l/m 6,4 km/h (2 Bft) O-SO 120 0 min 0,000 mm 0,0 UV-I 0 W/m 9,4 C 17,8 C 7,9 km/h (2 Bft) 0,00 %
_ Min-Zeit 05:00 16:00 19:00 - 20:00 - - - - - - 06:00 03:00 20:00 00:00
Minimum _ 14,3 C 38 % 1016,8 hPa - 0,0 km/h (0 Bft) - - - - - - 7,8 C 13,5 C 0,0 km/h (0 Bft) 0,00 %
_ Max-Zeit 16:00 00:00 05:00 00:00 09:00 - - 06:00 00:00 12:00 15:00 00:00 16:00 09:00 00:00
Maximum _ 26,3 C 75 % 1022,6 hPa 0,0 l/m 19,5 km/h
O-SO (3 Bft)
- - 60 min 0,000 mm 6,0 UV-I 914 W/m 13,2 C 26,3 C 24,1 km/h
O-SO (4 Bft)
0,00 %
Durchschnitt _ 20,4 C 52 % 1020,1 hPa #0,0 l/m 7,7 km/h (2 Bft) O-SO - #15:00 h #0,000 mm 3,2 UV-I 611 W/m 9,9 C 19,4 C 11,5 km/h (2 Bft) 0,00 %